»·PEaware :: N973SE L88-KBFL

N973SE :: L88-KBFL

FLIGHT INFORMATION

Flight Status: Arrived
Operator: Privately registered:
United States
More flights under this callsign
Pilot: Stig E. (4778)
Aircraft: Unknown
(DA62)
More flights by this aircraft type
Origin: L88 New Cuyama
United States
Destination: KBFL Meadows
United States
More flights between these airports :: More routes between these airports
Route: GMN FASTO2
File this flight plan on PilotEdge
Remarks:
Altitude:
(Current/Filed)
9,500ft
Speed:
(Current/Filed)
150kts
Departed: 24-Jun-18 11:59 PM
Arrived: 25-Jun-18 12:36 AM
Distance/Time
Traveled:
43nm/0:37
Distance/Time
To Go:
Arrived

Flight Plot

Page will automatically refresh every two minutes.

Flight plan parsing failed; only flown route is shown


Map Options




Map Legend


Flown Route
Filed Route
Departure Airport
Arrival Airport
Navaid (VOR, NDB)
Fix

Horizontal Profiles

Position Reports

Time Latitude Longitude Heading Altitude Ground
Speed
24-Jun-18 23:32 34.942541 -119.690726 205 2155ft 0kts
24-Jun-18 23:33 34.942541 -119.690726 205 2155ft 0kts
24-Jun-18 23:34 34.942541 -119.690726 205 2155ft 0kts
24-Jun-18 23:35 34.942541 -119.690726 205 2155ft 0kts
24-Jun-18 23:36 34.942541 -119.690726 205 2155ft 0kts
24-Jun-18 23:37 34.942541 -119.690726 205 2155ft 0kts
24-Jun-18 23:38 34.942541 -119.690726 205 2155ft 0kts
24-Jun-18 23:39 34.942541 -119.690726 205 2155ft 0kts
24-Jun-18 23:40 34.942541 -119.690726 205 2155ft 0kts
24-Jun-18 23:41 34.942541 -119.690726 205 2155ft 0kts
24-Jun-18 23:42 34.942541 -119.690726 205 2155ft 0kts
24-Jun-18 23:43 34.942541 -119.690726 205 2155ft 0kts
24-Jun-18 23:44 34.942541 -119.690726 205 2155ft 0kts
24-Jun-18 23:45 34.942541 -119.690726 205 2155ft 0kts
24-Jun-18 23:46 34.942541 -119.690726 205 2155ft 0kts
24-Jun-18 23:47 34.942541 -119.690726 205 2155ft 0kts
24-Jun-18 23:48 34.942541 -119.690726 205 2155ft 0kts
24-Jun-18 23:49 34.942541 -119.690726 205 2155ft 0kts
24-Jun-18 23:50 34.942541 -119.690726 205 2155ft 0kts
24-Jun-18 23:51 34.942541 -119.690726 205 2155ft 0kts
24-Jun-18 23:52 34.942541 -119.690726 205 2155ft 0kts
24-Jun-18 23:53 34.942541 -119.690726 205 2155ft 0kts
24-Jun-18 23:54 34.942541 -119.690726 205 2155ft 0kts
24-Jun-18 23:55 34.942541 -119.690726 205 2155ft 0kts
24-Jun-18 23:56 34.942541 -119.690726 205 2155ft 0kts
24-Jun-18 23:57 34.942541 -119.690726 205 2155ft 0kts
24-Jun-18 23:58 34.942491 -119.691075 306 2154ft 8kts
24-Jun-18 23:59 34.935269 -119.675059 119 2441ft 98kts
25-Jun-18 00:00 34.926715 -119.642054 96 3661ft 99kts
25-Jun-18 00:01 34.922553 -119.611304 96 4786ft 100kts
25-Jun-18 00:02 34.917796 -119.578376 96 5976ft 101kts
25-Jun-18 00:03 34.912599 -119.543321 102 7146ft 106kts
25-Jun-18 00:04 34.907204 -119.508210 103 8350ft 106kts
25-Jun-18 00:05 34.901953 -119.474458 103 9479ft 107kts
25-Jun-18 00:06 34.894644 -119.428083 102 9569ft 160kts
25-Jun-18 00:07 34.885927 -119.372844 100 9543ft 167kts
25-Jun-18 00:08 34.877411 -119.319149 101 9522ft 167kts
25-Jun-18 00:09 34.868556 -119.263804 101 9507ft 166kts
25-Jun-18 00:10 34.859834 -119.208927 100 9513ft 166kts
25-Jun-18 00:11 34.851052 -119.153630 100 9519ft 166kts
25-Jun-18 00:12 34.842273 -119.098453 100 9525ft 166kts
25-Jun-18 00:13 34.833426 -119.042729 100 9533ft 169kts
25-Jun-18 00:14 34.824471 -118.987222 100 9574ft 165kts
25-Jun-18 00:15 34.815713 -118.932127 102 9616ft 166kts
25-Jun-18 00:16 34.818250 -118.879733 27 9658ft 172kts
25-Jun-18 00:17 34.865060 -118.866903 11 9657ft 174kts
25-Jun-18 00:18 34.913104 -118.860831 359 9385ft 174kts
25-Jun-18 00:19 34.961401 -118.860853 359 8831ft 173kts
25-Jun-18 00:20 35.009393 -118.860697 359 8084ft 172kts
25-Jun-18 00:21 35.056861 -118.860468 359 7298ft 170kts
25-Jun-18 00:22 35.103774 -118.860219 358 6487ft 168kts
25-Jun-18 00:23 35.147880 -118.860169 0 5713ft 156kts
25-Jun-18 00:24 35.191052 -118.860899 359 4852ft 152kts
25-Jun-18 00:25 35.228473 -118.861670 359 4794ft 121kts
25-Jun-18 00:26 35.260277 -118.862457 359 4798ft 110kts
25-Jun-18 00:27 35.286905 -118.879512 318 4536ft 109kts
25-Jun-18 00:28 35.307397 -118.903952 318 3954ft 99kts
25-Jun-18 00:29 35.326702 -118.927107 318 3415ft 96kts
25-Jun-18 00:30 35.345529 -118.949741 317 2889ft 94kts
25-Jun-18 00:31 35.364050 -118.972030 317 2374ft 93kts
25-Jun-18 00:32 35.382272 -118.993975 317 1873ft 91kts
25-Jun-18 00:33 35.399520 -119.014758 317 1400ft 84kts
25-Jun-18 00:34 35.415938 -119.034563 317 961ft 82kts
25-Jun-18 00:35 35.431728 -119.053616 317 530ft 74kts
25-Jun-18 00:36 35.440133 -119.062775 352 497ft 17kts
25-Jun-18 00:37 35.440368 -119.062719 52 497ft 0kts
25-Jun-18 00:38 35.440368 -119.062719 52 497ft 0kts
25-Jun-18 00:39 35.438102 -119.059059 133 497ft 30kts
25-Jun-18 00:40 35.432623 -119.052545 135 497ft 0kts
25-Jun-18 00:41 35.432549 -119.052339 317 497ft 7kts
25-Jun-18 00:42 35.435470 -119.053496 69 497ft 10kts
25-Jun-18 00:43 35.435370 -119.051739 307 497ft 0kts
25-Jun-18 00:44 35.435370 -119.051739 307 497ft 0kts
25-Jun-18 00:45 35.435370 -119.051739 307 497ft 0kts
25-Jun-18 00:46 35.435370 -119.051739 307 497ft 0kts

Navigation Log

Ident Type
Flight plan parsing failed, navigation log unavailable